createdAt,value
2022-08-07T00:00:33.691Z,102275.85
2022-08-07T00:05:07.320Z,102275.84
2022-08-07T00:09:40.538Z,102267.88
2022-08-07T00:14:30.200Z,102263.80
2022-08-07T00:19:03.962Z,102265.21
2022-08-07T00:23:40.455Z,102265.23
2022-08-07T00:28:13.436Z,102263.96
2022-08-07T00:32:47.878Z,102269.80
2022-08-07T00:37:22.704Z,102270.84
2022-08-07T00:42:04.889Z,102272.98
2022-08-07T00:46:34.267Z,102274.95
2022-08-07T00:51:07.419Z,102269.45
2022-08-07T00:56:02.053Z,102270.68
2022-08-07T01:00:34.939Z,102275.81
2022-08-07T01:05:18.806Z,102274.23
2022-08-07T01:10:05.987Z,102269.08
2022-08-07T01:14:45.041Z,102273.33
2022-08-07T01:19:19.725Z,102272.08
2022-08-07T01:23:53.818Z,102276.66
2022-08-07T01:28:26.737Z,102272.27
2022-08-07T01:33:00.740Z,102275.78
2022-08-07T01:37:36.458Z,102276.67
2022-08-07T01:42:38.986Z,102268.88
2022-08-07T01:46:58.160Z,102270.81
2022-08-07T01:52:04.258Z,102272.74
2022-08-07T01:56:32.759Z,102278.21
2022-08-07T02:01:58.853Z,102275.02
2022-08-07T02:06:30.825Z,102276.61
2022-08-07T02:10:59.725Z,102277.30
2022-08-07T02:15:34.258Z,102272.35
2022-08-07T02:20:17.011Z,102281.71
2022-08-07T02:24:49.979Z,102279.41
2022-08-07T02:29:21.860Z,102287.71
2022-08-07T02:34:02.924Z,102287.02
2022-08-07T02:38:50.950Z,102290.20
2022-08-07T02:43:29.799Z,102285.30
2022-08-07T02:48:09.973Z,102289.52
2022-08-07T02:52:44.108Z,102293.95
2022-08-07T02:57:22.230Z,102288.48
2022-08-07T03:02:07.832Z,102290.44
2022-08-07T03:06:42.119Z,102292.01
2022-08-07T03:11:17.908Z,102296.23
2022-08-07T03:15:56.148Z,102295.69
2022-08-07T03:20:31.829Z,102299.39
2022-08-07T03:25:05.542Z,102298.49
2022-08-07T03:29:56.440Z,102293.39
2022-08-07T03:34:29.276Z,102296.41
2022-08-07T03:39:05.216Z,102297.50
2022-08-07T03:43:52.190Z,102302.48
2022-08-07T03:48:30.359Z,102297.89
2022-08-07T03:53:06.836Z,102299.83
2022-08-07T03:58:35.019Z,102304.63
2022-08-07T04:02:33.358Z,102306.93
2022-08-07T04:07:16.701Z,102309.40
2022-08-07T04:12:21.141Z,102308.02
2022-08-07T04:17:20.121Z,102313.31
2022-08-07T04:22:04.886Z,102318.25
2022-08-07T04:26:43.635Z,102323.38
2022-08-07T04:31:19.661Z,102322.30
2022-08-07T04:35:54.184Z,102323.20
2022-08-07T04:40:30.079Z,102331.31
2022-08-07T04:45:08.080Z,102340.34
2022-08-07T04:49:57.372Z,102340.89
2022-08-07T04:54:33.653Z,102338.23
2022-08-07T05:00:09.792Z,102336.52
2022-08-07T05:04:17.533Z,102342.27
2022-08-07T05:08:45.854Z,102337.02
2022-08-07T05:14:52.900Z,102346.73
2022-08-07T05:18:52.599Z,102343.14
2022-08-07T05:23:30.230Z,102343.77
2022-08-07T05:28:16.390Z,102345.44
2022-08-07T05:32:52.421Z,102353.51
2022-08-07T05:37:32.420Z,102360.71
2022-08-07T05:42:12.553Z,102359.95
2022-08-07T05:46:45.858Z,102363.71
2022-08-07T05:51:25.320Z,102366.42
2022-08-07T05:56:01.915Z,102367.47
2022-08-07T06:00:28.828Z,102364.88
2022-08-07T06:04:41.519Z,102372.10
2022-08-07T06:09:09.720Z,102379.00
2022-08-07T06:14:12.751Z,102389.01
2022-08-07T06:18:51.509Z,102389.29
2022-08-07T06:24:38.695Z,102399.45
2022-08-07T06:28:27.636Z,102406.44
2022-08-07T06:32:40.706Z,102407.42
2022-08-07T06:37:08.486Z,102412.61
2022-08-07T06:41:47.613Z,102419.37
2022-08-07T06:46:13.490Z,102419.41
2022-08-07T06:50:13.868Z,102421.55
2022-08-07T06:55:33.672Z,102429.91
2022-08-07T07:00:15.034Z,102431.63
2022-08-07T07:04:28.318Z,102437.27
2022-08-07T07:08:34.510Z,102436.66
2022-08-07T07:12:53.450Z,102432.11
2022-08-07T07:17:45.391Z,102431.02
2022-08-07T07:22:04.722Z,102430.92
2022-08-07T07:26:38.685Z,102429.73
2022-08-07T07:31:01.128Z,102423.04
2022-08-07T07:35:13.230Z,102413.61
2022-08-07T07:39:35.695Z,102412.16
2022-08-07T07:44:16.730Z,102412.38
2022-08-07T07:48:45.580Z,102417.21
2022-08-07T07:53:20.757Z,102414.55
2022-08-07T07:57:50.424Z,102419.81
2022-08-07T08:02:34.000Z,102419.36
2022-08-07T08:07:08.872Z,102423.14
2022-08-07T08:12:00.045Z,102423.51
2022-08-07T08:15:58.859Z,102425.56
2022-08-07T08:20:16.994Z,102429.17
2022-08-07T08:24:57.194Z,102424.38
2022-08-07T08:29:18.585Z,102420.80
2022-08-07T08:33:49.815Z,102424.48
2022-08-07T08:38:07.964Z,102426.98
2022-08-07T08:42:44.250Z,102427.48
2022-08-07T08:47:18.206Z,102427.14
2022-08-07T08:52:13.878Z,102423.58
2022-08-07T08:57:22.734Z,102423.59
2022-08-07T09:02:08.792Z,102425.77
2022-08-07T09:11:14.098Z,102427.37
2022-08-07T09:16:20.246Z,102422.46
2022-08-07T09:26:25.330Z,102418.85
2022-08-07T09:30:46.354Z,102419.67
2022-08-07T09:39:52.471Z,102416.41
2022-08-07T09:44:30.248Z,102421.95
2022-08-07T09:50:00.733Z,102418.97
2022-08-07T09:54:06.253Z,102412.13
2022-08-07T09:58:42.256Z,102413.23
2022-08-07T10:04:03.620Z,102412.48
2022-08-07T10:08:02.880Z,102409.02
2022-08-07T10:12:34.607Z,102408.84
2022-08-07T10:17:14.392Z,102408.98
2022-08-07T10:22:16.080Z,102403.77
2022-08-07T10:26:51.567Z,102400.09
2022-08-07T10:31:45.227Z,102393.77
2022-08-07T10:36:47.575Z,102390.46
2022-08-07T10:41:51.791Z,102388.10
2022-08-07T10:46:27.736Z,102386.82
2022-08-07T10:51:05.280Z,102382.22
2022-08-07T10:55:54.081Z,102381.98
2022-08-07T11:00:39.762Z,102386.76
2022-08-07T11:05:48.912Z,102379.63
2022-08-07T11:10:27.467Z,102371.73
2022-08-07T11:15:03.952Z,102369.35
2022-08-07T11:19:53.126Z,102364.13
2022-08-07T11:24:45.709Z,102359.02
2022-08-07T11:30:10.220Z,102362.54
2022-08-07T11:34:36.486Z,102358.61
2022-08-07T11:39:14.606Z,102356.66
2022-08-07T11:44:11.948Z,102362.86
2022-08-07T11:49:10.276Z,102355.84
2022-08-07T11:53:56.996Z,102347.50
2022-08-07T11:58:51.670Z,102357.20
2022-08-07T12:03:46.111Z,102355.92
2022-08-07T12:08:25.703Z,102353.89
2022-08-07T12:13:16.903Z,102352.81
2022-08-07T12:17:58.728Z,102354.47
2022-08-07T12:22:58.598Z,102352.84
2022-08-07T12:28:05.843Z,102352.36
2022-08-07T12:32:28.283Z,102346.86
2022-08-07T12:36:35.852Z,102349.30
2022-08-07T12:41:17.437Z,102350.95
2022-08-07T12:46:15.789Z,102339.36
2022-08-07T12:51:01.099Z,102338.11
2022-08-07T12:56:03.593Z,102338.77
2022-08-07T13:00:49.458Z,102333.98
2022-08-07T13:06:03.525Z,102335.21
2022-08-07T13:10:39.367Z,102335.27
2022-08-07T13:15:14.326Z,102331.68
2022-08-07T13:20:10.804Z,102327.77
2022-08-07T13:24:52.422Z,102324.30
2022-08-07T13:29:34.835Z,102330.02
2022-08-07T13:34:35.495Z,102325.84
2022-08-07T13:39:28.226Z,102325.59
2022-08-07T13:44:10.700Z,102328.56
2022-08-07T13:48:51.967Z,102324.99
2022-08-07T13:53:06.392Z,102327.73
2022-08-07T13:57:58.946Z,102326.77
2022-08-07T14:02:49.454Z,102326.46
2022-08-07T14:07:27.556Z,102325.98
2022-08-07T14:12:04.711Z,102328.89
2022-08-07T14:16:40.603Z,102324.76
2022-08-07T14:22:01.059Z,102320.88
2022-08-07T14:26:30.395Z,102320.89
2022-08-07T14:31:18.893Z,102319.89
2022-08-07T14:35:56.761Z,102311.70
2022-08-07T14:40:35.025Z,102305.98
2022-08-07T14:45:21.489Z,102306.95
2022-08-07T14:54:34.579Z,102305.48
2022-08-07T14:59:13.950Z,102312.16
2022-08-07T15:14:33.324Z,102310.66
2022-08-07T15:20:30.548Z,102307.52
2022-08-07T15:25:15.379Z,102309.07
2022-08-07T15:30:04.599Z,102312.27
2022-08-07T15:34:14.880Z,102308.61
2022-08-07T15:38:59.208Z,102305.60
2022-08-07T15:43:55.657Z,102303.91
2022-08-07T15:48:36.692Z,102297.26
2022-08-07T15:53:51.678Z,102301.73
2022-08-07T15:58:32.587Z,102297.25
2022-08-07T16:03:21.568Z,102300.33
2022-08-07T16:08:32.210Z,102302.10
2022-08-07T16:13:01.052Z,102296.20
2022-08-07T16:18:02.283Z,102293.79
2022-08-07T16:22:37.750Z,102293.06
2022-08-07T16:27:23.493Z,102290.48
2022-08-07T16:31:57.325Z,102288.08
2022-08-07T16:37:02.865Z,102289.50
2022-08-07T16:41:41.100Z,102287.07
2022-08-07T16:47:06.643Z,102290.88
2022-08-07T16:51:52.051Z,102290.30
2022-08-07T16:56:05.918Z,102285.23
2022-08-07T17:00:29.446Z,102282.33
2022-08-07T17:04:51.105Z,102283.35
2022-08-07T17:10:07.474Z,102285.29
2022-08-07T17:14:51.574Z,102289.13
2022-08-07T17:20:03.539Z,102295.34
2022-08-07T17:24:32.005Z,102297.83
2022-08-07T17:28:55.011Z,102300.11
2022-08-07T17:34:10.082Z,102301.13
2022-08-07T17:38:05.482Z,102300.11
2022-08-07T17:42:59.371Z,102302.52
2022-08-07T17:47:16.662Z,102306.69
2022-08-07T17:51:59.669Z,102306.33
2022-08-07T17:56:06.879Z,102298.45
2022-08-07T18:00:34.402Z,102292.94
2022-08-07T18:05:20.882Z,102290.28
2022-08-07T18:09:48.310Z,102297.61
2022-08-07T18:14:03.031Z,102298.96
2022-08-07T18:21:01.376Z,102302.30
2022-08-07T18:22:49.350Z,102302.90
2022-08-07T18:27:01.590Z,102305.17
2022-08-07T18:31:40.554Z,102305.27
2022-08-07T18:36:08.083Z,102308.98
2022-08-07T18:40:42.490Z,102309.37
2022-08-07T18:45:43.560Z,102305.77
2022-08-07T18:50:19.460Z,102314.98
2022-08-07T18:54:27.582Z,102320.65
2022-08-07T18:58:51.108Z,102321.94
2022-08-07T19:03:03.870Z,102322.00
2022-08-07T19:07:53.772Z,102320.06
2022-08-07T19:12:10.154Z,102317.91
2022-08-07T19:17:06.548Z,102318.29
2022-08-07T19:21:08.899Z,102324.38
2022-08-07T19:26:23.882Z,102332.25
2022-08-07T19:31:02.072Z,102334.44
2022-08-07T19:34:41.222Z,102335.22
2022-08-07T19:39:01.545Z,102334.37
2022-08-07T19:43:50.005Z,102332.64
2022-08-07T19:47:56.073Z,102336.06
2022-08-07T19:52:18.216Z,102338.96
2022-08-07T19:57:52.108Z,102338.13
2022-08-07T20:01:09.690Z,102342.42
2022-08-07T20:05:23.749Z,102346.77
2022-08-07T20:10:35.746Z,102345.92
2022-08-07T20:14:31.459Z,102345.91
2022-08-07T20:19:10.385Z,102349.95
2022-08-07T20:23:42.806Z,102351.10
2022-08-07T20:28:16.998Z,102349.89
2022-08-07T20:32:39.706Z,102350.12
2022-08-07T20:37:15.249Z,102343.09
2022-08-07T20:41:48.441Z,102342.55
2022-08-07T20:46:26.875Z,102346.14
2022-08-07T20:51:01.981Z,102341.38
2022-08-07T20:55:15.245Z,102336.79
2022-08-07T21:00:07.755Z,102336.65
2022-08-07T21:04:22.437Z,102333.48
2022-08-07T21:08:56.788Z,102336.55
2022-08-07T21:13:44.062Z,102334.29
2022-08-07T21:18:29.453Z,102341.77
2022-08-07T21:23:27.364Z,102341.06
2022-08-07T21:28:01.872Z,102344.80
2022-08-07T21:32:46.701Z,102345.00
2022-08-07T21:37:04.324Z,102338.81
2022-08-07T21:41:37.838Z,102338.34
2022-08-07T21:46:24.520Z,102338.89
2022-08-07T21:51:31.970Z,102340.52
2022-08-07T21:56:16.557Z,102345.53
2022-08-07T22:00:59.159Z,102342.42
2022-08-07T22:05:45.248Z,102338.59
2022-08-07T22:10:18.942Z,102335.96
2022-08-07T22:14:59.291Z,102335.44
2022-08-07T22:19:30.575Z,102333.11
2022-08-07T22:24:22.910Z,102337.55
2022-08-07T22:29:20.439Z,102339.32
2022-08-07T22:33:53.002Z,102342.86
2022-08-07T22:38:09.316Z,102343.58
2022-08-07T22:42:40.500Z,102339.48
2022-08-07T22:47:16.737Z,102335.38
2022-08-07T22:52:00.599Z,102333.96
2022-08-07T22:56:47.701Z,102328.64
2022-08-07T23:01:49.995Z,102325.09
2022-08-07T23:06:26.682Z,102327.75
2022-08-07T23:11:10.379Z,102327.77
2022-08-07T23:16:46.432Z,102329.05
2022-08-07T23:21:16.327Z,102331.20
2022-08-07T23:25:51.318Z,102327.33
2022-08-07T23:31:05.572Z,102325.72
2022-08-07T23:35:37.144Z,102326.77
2022-08-07T23:40:16.177Z,102329.42
2022-08-07T23:45:15.151Z,102332.09
2022-08-07T23:50:06.096Z,102330.33
2022-08-07T23:54:46.049Z,102331.40
